Time;durP1;ratioP1;P1;durP2;ratioP2;P2;SDS_P1;SDS_P2;PMS_P1;PMS_P2;Temp;Humidity;BMP_temperature;BMP_pressure;BME280_temperature;BME280_humidity;BME280_pressure;Samples;Min_cycle;Max_cycle;Signal;HPM_P1;HPM_P2
2023/02/09 00:01:09;;;;;;;4.47;3.10;;;19.90;28.10;;;;;;5060318;28;20040;-50
2023/02/09 00:03:36;;;;;;;4.95;3.00;;;19.90;28.10;;;;;;5059796;28;20052;-53
2023/02/09 00:06:04;;;;;;;3.70;2.47;;;19.90;28.10;;;;;;5060473;28;20063;-52
2023/02/09 00:08:30;;;;;;;3.33;2.42;;;19.90;28.10;;;;;;5063347;28;20062;-52
2023/02/09 00:10:56;;;;;;;5.00;3.10;;;19.90;28.10;;;;;;5064030;28;20036;-50
2023/02/09 00:13:22;;;;;;;4.55;2.60;;;19.90;28.00;;;;;;5042585;28;20348;-52
2023/02/09 00:15:55;;;;;;;3.40;2.60;;;19.90;28.00;;;;;;5062459;28;20123;-51
2023/02/09 00:18:22;;;;;;;4.00;2.85;;;19.90;28.00;;;;;;5060550;28;20071;-54
2023/02/09 00:21:09;;;;;;;5.20;3.22;;;19.80;28.00;;;;;;5057836;28;20458;-53
2023/02/09 00:23:38;;;;;;;4.10;2.90;;;19.90;28.00;;;;;;5054720;28;20041;-52
2023/02/09 00:26:08;;;;;;;3.92;2.50;;;19.80;27.90;;;;;;5061512;28;20036;-50
2023/02/09 00:28:35;;;;;;;4.25;2.70;;;19.80;27.90;;;;;;5062931;28;20048;-50
2023/02/09 00:31:11;;;;;;;4.40;2.60;;;19.80;27.90;;;;;;5063229;28;20025;-51
2023/02/09 00:33:39;;;;;;;3.75;3.03;;;19.80;27.90;;;;;;5045760;28;20474;-49
2023/02/09 00:36:10;;;;;;;3.33;2.63;;;19.80;27.90;;;;;;5044676;28;20021;-48
2023/02/09 00:38:36;;;;;;;3.53;2.38;;;19.80;27.90;;;;;;5044601;28;20028;-51
2023/02/09 00:41:02;;;;;;;4.68;3.00;;;19.80;27.80;;;;;;5064148;28;20029;-52
2023/02/09 00:43:28;;;;;;;3.78;2.85;;;19.80;27.80;;;;;;5061910;28;20510;-49
2023/02/09 00:45:54;;;;;;;4.05;2.58;;;19.80;27.80;;;;;;5063615;28;20045;-52
2023/02/09 00:48:21;;;;;;;3.80;2.60;;;19.80;27.80;;;;;;5063982;28;20039;-53
2023/02/09 00:50:48;;;;;;;4.38;2.70;;;19.70;27.80;;;;;;5063310;28;20021;-50
2023/02/09 00:53:14;;;;;;;4.47;2.80;;;19.70;27.70;;;;;;5045042;28;20117;-49
2023/02/09 00:55:40;;;;;;;4.22;2.63;;;19.70;27.70;;;;;;5060838;28;20408;-50
2023/02/09 00:58:06;;;;;;;3.25;2.45;;;19.70;27.60;;;;;;5046465;28;20017;-53
2023/02/09 01:00:32;;;;;;;5.57;2.95;;;19.80;27.70;;;;;;5061337;28;20070;-48
2023/02/09 01:02:58;;;;;;;4.68;2.97;;;19.70;28.10;;;;;;5062046;28;20029;-48
2023/02/09 01:05:25;;;;;;;4.45;3.00;;;19.70;27.50;;;;;;5061603;28;20041;-53
2023/02/09 01:07:51;;;;;;;4.43;3.03;;;19.70;27.60;;;;;;5044266;28;20040;-50
2023/02/09 01:10:19;;;;;;;4.55;2.83;;;19.70;27.50;;;;;;5063575;28;20039;-51
2023/02/09 01:12:45;;;;;;;4.20;3.00;;;19.70;27.50;;;;;;5062990;28;20021;-52
2023/02/09 01:15:11;;;;;;;3.50;2.72;;;19.70;27.50;;;;;;5063138;28;20059;-49
2023/02/09 01:17:37;;;;;;;5.03;3.13;;;19.70;27.50;;;;;;5060734;28;20107;-53
2023/02/09 01:20:05;;;;;;;4.72;3.03;;;19.70;27.50;;;;;;5046440;28;20444;-54
2023/02/09 01:22:32;;;;;;;4.28;2.83;;;19.70;27.50;;;;;;5045126;28;20029;-54
2023/02/09 01:24:58;;;;;;;4.45;3.05;;;19.70;27.50;;;;;;5061810;28;20538;-52
2023/02/09 01:27:24;;;;;;;6.20;2.97;;;19.70;27.40;;;;;;5046175;28;20613;-54
2023/02/09 01:29:51;;;;;;;4.28;2.72;;;19.60;27.40;;;;;;5061388;28;20029;-53
2023/02/09 01:32:17;;;;;;;3.80;2.97;;;19.60;27.40;;;;;;5043538;28;20044;-54
2023/02/09 01:34:43;;;;;;;3.75;2.70;;;19.70;27.40;;;;;;5041582;28;20352;-52
2023/02/09 01:37:10;;;;;;;4.63;3.60;;;19.70;27.40;;;;;;5062327;28;20116;-53
2023/02/09 01:39:36;;;;;;;4.18;2.60;;;19.60;27.40;;;;;;5043847;28;20183;-50
2023/02/09 01:42:03;;;;;;;4.13;3.00;;;19.60;27.40;;;;;;5043240;28;20163;-53
2023/02/09 01:44:29;;;;;;;4.72;3.20;;;19.60;27.30;;;;;;5044238;28;20045;-51
2023/02/09 01:46:55;;;;;;;4.57;2.63;;;19.60;27.30;;;;;;5062932;28;20034;-53
2023/02/09 01:49:27;;;;;;;4.22;2.65;;;19.60;27.30;;;;;;5065803;28;20436;-54
2023/02/09 01:52:08;;;;;;;4.43;2.88;;;19.60;27.30;;;;;;5049482;28;20029;-51
2023/02/09 01:54:40;;;;;;;3.88;3.05;;;19.60;27.30;;;;;;5065554;28;20037;-50
2023/02/09 01:57:10;;;;;;;4.47;2.92;;;19.60;27.20;;;;;;5065218;28;20040;-52
2023/02/09 01:59:39;;;;;;;4.70;3.00;;;19.60;27.20;;;;;;5051945;28;20539;-47
2023/02/09 02:02:06;;;;;;;4.22;2.80;;;19.60;27.30;;;;;;5048199;28;20032;-53
2023/02/09 02:04:34;;;;;;;3.63;2.80;;;19.60;27.30;;;;;;5066036;28;20047;-52
2023/02/09 02:07:13;;;;;;;4.00;2.60;;;19.50;27.20;;;;;;5063140;28;20761;-53
2023/02/09 02:09:39;;;;;;;4.60;2.78;;;19.50;27.30;;;;;;5067290;28;20029;-52
2023/02/09 02:12:05;;;;;;;3.95;2.78;;;19.50;27.30;;;;;;5046545;28;20037;-59
2023/02/09 02:14:34;;;;;;;4.25;2.65;;;19.60;27.30;;;;;;5065522;28;20049;-48
2023/02/09 02:17:06;;;;;;;3.65;3.00;;;19.50;27.30;;;;;;5039567;28;20444;-49
2023/02/09 02:19:54;;;;;;;4.55;3.25;;;19.50;27.20;;;;;;5044026;28;20060;-53
2023/02/09 02:22:42;;;;;;;5.07;2.67;;;19.50;27.20;;;;;;5066683;28;20021;-48
2023/02/09 02:25:36;;;;;;;3.92;2.95;;;19.50;27.20;;;;;;5046962;28;20033;-53
2023/02/09 02:28:05;;;;;;;4.60;3.17;;;19.50;27.20;;;;;;5037918;28;20394;-52
2023/02/09 02:30:42;;;;;;;4.25;2.83;;;19.50;27.20;;;;;;5068107;28;20021;-48
2023/02/09 02:33:48;;;;;;;3.78;2.80;;;19.50;27.30;;;;;;5064593;28;20051;-47
2023/02/09 02:36:51;;;;;;;4.20;2.53;;;19.40;27.20;;;;;;5063623;28;20041;-52
2023/02/09 02:39:38;;;;;;;4.40;3.00;;;19.50;27.20;;;;;;5064952;28;20386;-53
2023/02/09 02:45:26;;;;;;;3.60;2.70;;;19.40;27.20;;;;;;5047984;28;20379;-52
2023/02/09 02:48:01;;;;;;;5.75;2.90;;;19.40;27.20;;;;;;5064758;28;20024;-53
2023/02/09 02:50:30;;;;;;;4.85;2.90;;;19.40;27.20;;;;;;5046193;28;20364;-50
2023/02/09 02:53:00;;;;;;;4.30;2.90;;;19.40;27.20;;;;;;5066304;28;20024;-51
2023/02/09 02:55:30;;;;;;;4.60;3.03;;;19.40;27.20;;;;;;5064131;28;20063;-51
2023/02/09 02:58:02;;;;;;;3.40;2.70;;;19.40;27.20;;;;;;5063771;28;20017;-50
2023/02/09 03:00:36;;;;;;;3.47;2.65;;;19.40;27.10;;;;;;5065439;28;20058;-53
2023/02/09 03:03:08;;;;;;;4.35;2.78;;;19.40;27.10;;;;;;5063923;28;20355;-53
2023/02/09 03:05:35;;;;;;;3.97;2.83;;;19.40;27.10;;;;;;5062373;28;20108;-48
2023/02/09 03:08:00;;;;;;;3.90;2.80;;;19.40;27.10;;;;;;5064640;28;20021;-49
2023/02/09 03:10:37;;;;;;;3.97;2.60;;;19.40;27.10;;;;;;5066049;28;20029;-47
2023/02/09 03:13:20;;;;;;;3.88;2.80;;;19.40;27.10;;;;;;5045451;28;20055;-49
2023/02/09 03:16:05;;;;;;;3.92;2.90;;;19.40;27.10;;;;;;5066423;28;20032;-50
2023/02/09 03:18:49;;;;;;;4.72;2.70;;;19.30;27.10;;;;;;5064163;28;20052;-51
2023/02/09 03:21:46;;;;;;;4.55;2.78;;;19.30;27.10;;;;;;5064401;28;20020;-52
2023/02/09 03:24:55;;;;;;;4.78;3.00;;;19.30;27.00;;;;;;5066600;28;20036;-53
2023/02/09 03:27:32;;;;;;;5.65;3.10;;;19.30;27.00;;;;;;4981294;28;20027;-51
2023/02/09 03:30:03;;;;;;;4.78;2.90;;;19.30;27.00;;;;;;5055156;28;20056;-49
2023/02/09 03:32:29;;;;;;;3.40;2.65;;;19.30;27.00;;;;;;5045058;28;20056;-53
2023/02/09 03:34:56;;;;;;;3.78;2.78;;;19.30;27.00;;;;;;5062389;28;20115;-54
2023/02/09 03:37:23;;;;;;;3.72;2.78;;;19.30;27.00;;;;;;5065184;28;20028;-52
2023/02/09 03:39:49;;;;;;;4.45;2.92;;;19.30;27.00;;;;;;5065242;28;20033;-53
2023/02/09 03:42:15;;;;;;;2.60;2.20;;;19.30;27.00;;;;;;5065719;28;20040;-51
2023/02/09 03:44:41;;;;;;;3.63;2.70;;;19.30;27.00;;;;;;5047512;28;20374;-51
2023/02/09 03:47:08;;;;;;;2.92;2.33;;;19.30;27.10;;;;;;5064506;28;20103;-51
2023/02/09 03:49:39;;;;;;;4.40;2.70;;;19.30;27.10;;;;;;5065055;28;20041;-53
2023/02/09 03:52:12;;;;;;;5.75;2.90;;;19.30;27.10;;;;;;5064102;28;20104;-53
2023/02/09 03:54:38;;;;;;;4.20;2.63;;;19.30;27.10;;;;;;5064817;28;20025;-47
2023/02/09 03:57:05;;;;;;;5.78;2.78;;;19.20;27.10;;;;;;5061939;28;20033;-50
2023/02/09 03:59:35;;;;;;;3.55;2.53;;;19.20;27.10;;;;;;5064892;28;20082;-49
2023/02/09 04:02:02;;;;;;;3.72;2.65;;;19.20;27.10;;;;;;5062274;28;20047;-50
2023/02/09 04:04:28;;;;;;;3.30;2.33;;;19.20;27.40;;;;;;5044713;28;20170;-53
2023/02/09 04:06:54;;;;;;;4.45;2.40;;;19.20;27.10;;;;;;5065177;28;20054;-50
2023/02/09 04:09:21;;;;;;;4.47;2.88;;;19.20;27.10;;;;;;5060592;28;20448;-49
2023/02/09 04:11:47;;;;;;;2.92;2.35;;;19.20;27.10;;;;;;5063807;28;20085;-51
2023/02/09 04:14:13;;;;;;;4.05;3.10;;;19.20;27.10;;;;;;5064720;28;20067;-53
2023/02/09 04:16:39;;;;;;;3.22;2.60;;;19.20;27.10;;;;;;5067010;28;20020;-49
2023/02/09 04:19:05;;;;;;;3.22;2.50;;;19.20;27.10;;;;;;5060802;28;20399;-51
2023/02/09 04:21:31;;;;;;;4.15;2.50;;;19.20;27.10;;;;;;5063885;28;20039;-50
2023/02/09 04:23:57;;;;;;;4.18;2.90;;;19.20;27.10;;;;;;5064230;28;20066;-52
2023/02/09 04:26:23;;;;;;;3.60;2.90;;;19.20;27.00;;;;;;5061612;28;20041;-51
2023/02/09 04:28:49;;;;;;;3.60;2.75;;;19.20;27.00;;;;;;5062834;28;20040;-52
2023/02/09 04:31:15;;;;;;;3.90;2.53;;;19.20;27.00;;;;;;5064772;28;20035;-51
2023/02/09 04:33:41;;;;;;;3.45;2.55;;;19.20;27.00;;;;;;5062105;28;20024;-51
2023/02/09 04:36:08;;;;;;;4.68;2.58;;;19.20;27.00;;;;;;5063972;28;20037;-52
2023/02/09 04:38:34;;;;;;;3.45;2.38;;;19.20;27.00;;;;;;5062592;28;20029;-51
2023/02/09 04:41:01;;;;;;;4.85;2.67;;;19.20;26.90;;;;;;5063660;28;20078;-53
2023/02/09 04:43:27;;;;;;;3.65;2.58;;;19.10;26.90;;;;;;5062213;28;20043;-51
2023/02/09 04:45:53;;;;;;;4.13;3.00;;;19.10;26.90;;;;;;5061978;28;20345;-52
2023/02/09 04:48:23;;;;;;;3.55;2.55;;;19.10;26.90;;;;;;5062874;28;20379;-48
2023/02/09 04:50:49;;;;;;;4.68;2.78;;;19.10;26.90;;;;;;5062395;28;20020;-47
2023/02/09 04:53:15;;;;;;;3.30;2.50;;;19.10;27.40;;;;;;5062882;28;20472;-51
2023/02/09 04:55:43;;;;;;;2.72;2.30;;;19.10;26.90;;;;;;5061438;28;20028;-53
2023/02/09 05:00:59;;;;;;;3.53;2.58;;;19.10;26.80;;;;;;5063475;28;20043;-49
2023/02/09 05:03:26;;;;;;;3.30;2.42;;;19.10;26.80;;;;;;5061131;28;20046;-51
2023/02/09 05:05:56;;;;;;;3.55;2.50;;;19.10;26.80;;;;;;5063091;28;20090;-53
2023/02/09 05:08:23;;;;;;;4.13;2.70;;;19.10;26.80;;;;;;5058286;28;20356;-53
2023/02/09 05:10:50;;;;;;;5.63;2.95;;;19.10;26.80;;;;;;5062933;28;20525;-50
2023/02/09 05:13:16;;;;;;;3.67;2.35;;;19.10;26.80;;;;;;5061386;28;20021;-54
2023/02/09 05:15:42;;;;;;;4.25;2.63;;;19.10;26.80;;;;;;5062339;28;20037;-50
2023/02/09 05:18:08;;;;;;;3.75;2.50;;;19.10;26.80;;;;;;5061985;28;20372;-52
2023/02/09 05:20:35;;;;;;;3.45;2.45;;;19.00;26.70;;;;;;5063209;28;20032;-51
2023/02/09 05:23:01;;;;;;;4.18;2.72;;;19.10;26.80;;;;;;5062243;28;20100;-49
2023/02/09 05:25:27;;;;;;;4.10;2.95;;;19.00;26.70;;;;;;5062773;28;20024;-51
2023/02/09 05:27:53;;;;;;;4.07;2.90;;;19.00;26.70;;;;;;5062523;28;20124;-51
2023/02/09 05:30:20;;;;;;;4.60;2.22;;;19.00;26.70;;;;;;5045069;28;20496;-46
2023/02/09 05:32:45;;;;;;;3.22;2.67;;;19.00;26.70;;;;;;5058785;28;20047;-52
2023/02/09 05:35:11;;;;;;;4.57;2.80;;;19.00;26.70;;;;;;5062830;28;20029;-50
2023/02/09 05:37:37;;;;;;;3.83;2.85;;;19.00;26.70;;;;;;5063148;28;20024;-53
2023/02/09 05:40:04;;;;;;;4.07;2.83;;;19.00;26.60;;;;;;5064507;28;20452;-53
2023/02/09 05:42:29;;;;;;;3.55;2.70;;;19.00;26.60;;;;;;5064878;28;20040;-52
2023/02/09 05:44:55;;;;;;;3.17;2.45;;;19.00;26.60;;;;;;5061289;28;20037;-51
2023/02/09 05:47:23;;;;;;;3.13;2.42;;;19.00;26.60;;;;;;5045182;28;20024;-50
2023/02/09 05:49:50;;;;;;;3.25;2.47;;;19.00;26.60;;;;;;5062607;28;20044;-48
2023/02/09 05:52:17;;;;;;;3.38;2.40;;;19.00;26.60;;;;;;5063099;28;20028;-53
2023/02/09 05:54:43;;;;;;;5.13;2.67;;;19.00;26.60;;;;;;5061621;28;20079;-51
2023/02/09 05:57:09;;;;;;;3.63;2.60;;;19.00;26.60;;;;;;5063417;28;20032;-52
2023/02/09 05:59:35;;;;;;;4.70;3.03;;;19.00;26.60;;;;;;5062380;28;20037;-51
2023/02/09 06:02:01;;;;;;;3.72;2.90;;;19.00;26.60;;;;;;5062988;28;20032;-52
2023/02/09 06:04:27;;;;;;;4.05;2.80;;;19.00;26.60;;;;;;5061617;28;20446;-53
2023/02/09 06:06:53;;;;;;;3.92;2.88;;;18.90;26.60;;;;;;5063528;28;20139;-52
2023/02/09 06:09:20;;;;;;;4.47;2.85;;;19.00;26.60;;;;;;5055134;28;20116;-48
2023/02/09 06:11:46;;;;;;;3.90;2.92;;;19.00;26.60;;;;;;5062456;28;20036;-50
2023/02/09 06:14:12;;;;;;;4.93;3.25;;;18.90;26.50;;;;;;5045305;28;20456;-52
2023/02/09 06:16:39;;;;;;;4.20;2.92;;;18.90;26.50;;;;;;5061850;28;20071;-51
2023/02/09 06:19:06;;;;;;;4.03;2.80;;;18.90;26.50;;;;;;5060329;28;20381;-46
2023/02/09 06:21:32;;;;;;;4.50;3.03;;;18.90;26.60;;;;;;5063267;28;20044;-53
2023/02/09 06:23:58;;;;;;;3.85;2.60;;;18.90;26.60;;;;;;5062445;28;20494;-53
2023/02/09 06:26:24;;;;;;;4.13;2.75;;;18.90;26.60;;;;;;5062486;28;20044;-51
2023/02/09 06:28:49;;;;;;;3.55;2.72;;;18.90;26.60;;;;;;5061470;28;20025;-48
2023/02/09 06:31:15;;;;;;;4.18;2.83;;;18.90;26.60;;;;;;5064330;28;20114;-49
2023/02/09 06:33:41;;;;;;;4.20;2.60;;;18.90;26.60;;;;;;5064900;28;20033;-47
2023/02/09 06:36:08;;;;;;;5.07;2.60;;;18.90;26.60;;;;;;5063658;28;20036;-50
2023/02/09 06:38:35;;;;;;;4.38;2.90;;;18.90;26.60;;;;;;5048352;28;20028;-51
2023/02/09 06:41:01;;;;;;;4.07;2.97;;;18.90;26.70;;;;;;5046871;28;20029;-52
2023/02/09 06:43:27;;;;;;;4.18;3.17;;;18.90;26.70;;;;;;5062576;28;20047;-54
2023/02/09 06:45:52;;;;;;;4.38;3.28;;;18.90;26.70;;;;;;5066212;28;20025;-52
2023/02/09 06:48:18;;;;;;;4.30;3.03;;;18.90;26.70;;;;;;5068408;28;20111;-53
2023/02/09 06:50:44;;;;;;;3.25;2.63;;;18.90;26.60;;;;;;5062092;28;20424;-50
2023/02/09 06:53:10;;;;;;;4.70;2.88;;;18.90;26.70;;;;;;5066979;28;20025;-53
2023/02/09 06:55:36;;;;;;;4.95;3.05;;;18.90;26.70;;;;;;5064996;28;20034;-51
2023/02/09 06:58:03;;;;;;;4.88;3.10;;;18.90;26.70;;;;;;5063171;28;20099;-51
2023/02/09 07:00:30;;;;;;;4.40;2.97;;;18.80;26.60;;;;;;5062339;28;20094;-50
2023/02/09 07:02:57;;;;;;;4.57;3.10;;;18.90;26.70;;;;;;5064797;28;20101;-51
2023/02/09 07:05:23;;;;;;;3.75;2.72;;;18.90;26.60;;;;;;5065527;28;20032;-51
2023/02/09 07:07:49;;;;;;;5.22;3.38;;;18.80;26.50;;;;;;5064954;28;20040;-53
2023/02/09 07:10:17;;;;;;;4.55;3.38;;;18.80;26.50;;;;;;5064673;28;20380;-52
2023/02/09 07:12:43;;;;;;;4.80;3.15;;;18.80;26.50;;;;;;5064845;28;20071;-51
2023/02/09 07:15:10;;;;;;;4.75;3.28;;;18.80;26.40;;;;;;5066358;28;20077;-49
2023/02/09 07:17:36;;;;;;;4.47;3.45;;;18.80;26.40;;;;;;5064551;28;20103;-48
2023/02/09 07:20:03;;;;;;;4.43;3.35;;;18.80;26.40;;;;;;5048549;28;20112;-53
2023/02/09 07:22:29;;;;;;;4.22;3.00;;;18.80;26.40;;;;;;5062922;28;20036;-49
2023/02/09 07:24:55;;;;;;;5.68;3.40;;;18.80;26.40;;;;;;5065055;28;20457;-51
2023/02/09 07:27:22;;;;;;;5.15;3.13;;;18.80;26.40;;;;;;5061019;28;20036;-52
2023/02/09 07:29:48;;;;;;;4.00;2.67;;;18.80;26.40;;;;;;5066846;28;20056;-50
2023/02/09 07:32:14;;;;;;;4.95;3.00;;;18.80;26.40;;;;;;5064104;28;20017;-51
2023/02/09 07:34:39;;;;;;;4.47;3.15;;;18.80;26.50;;;;;;5062627;28;20427;-50
2023/02/09 07:37:05;;;;;;;4.95;3.05;;;18.70;26.40;;;;;;5068225;28;20490;-49
2023/02/09 07:39:31;;;;;;;3.95;3.13;;;18.70;26.40;;;;;;5063910;28;20098;-52
2023/02/09 07:41:57;;;;;;;4.45;3.00;;;18.70;26.40;;;;;;5061790;28;20428;-51
2023/02/09 07:44:28;;;;;;;5.35;3.53;;;18.80;26.50;;;;;;5046317;28;20045;-50
2023/02/09 07:46:54;;;;;;;4.72;3.25;;;18.80;26.50;;;;;;5058731;28;20032;-52
2023/02/09 07:49:20;;;;;;;4.70;3.22;;;18.70;26.50;;;;;;5066148;28;20029;-53
2023/02/09 07:51:46;;;;;;;4.47;3.00;;;18.70;27.10;;;;;;5065252;28;20104;-52
2023/02/09 07:54:12;;;;;;;4.50;3.17;;;18.70;26.60;;;;;;5064532;28;20375;-49
2023/02/09 07:56:39;;;;;;;5.00;3.45;;;18.70;26.70;;;;;;5061726;28;20029;-48
2023/02/09 07:59:05;;;;;;;4.68;3.28;;;18.70;26.90;;;;;;5047736;28;20045;-50
2023/02/09 08:01:32;;;;;;;4.40;3.40;;;18.70;27.00;;;;;;5065784;28;20478;-52
2023/02/09 08:03:58;;;;;;;5.38;3.30;;;18.70;27.00;;;;;;5060444;28;20071;-53
2023/02/09 08:06:35;;;;;;;4.70;3.55;;;18.70;26.90;;;;;;5042224;28;20020;-48
2023/02/09 08:09:02;;;;;;;6.15;3.17;;;18.70;26.80;;;;;;5062438;28;20039;-48
2023/02/09 08:11:39;;;;;;;4.88;3.00;;;18.70;26.80;;;;;;5062097;28;20029;-51
2023/02/09 08:14:11;;;;;;;6.28;3.35;;;18.70;26.80;;;;;;5070933;28;20064;-48
2023/02/09 08:16:38;;;;;;;3.92;3.00;;;18.80;26.80;;;;;;5058532;28;20036;-50
2023/02/09 08:19:10;;;;;;;4.45;3.40;;;18.70;26.80;;;;;;5057595;28;20048;-49
2023/02/09 08:21:40;;;;;;;4.32;3.50;;;18.80;26.70;;;;;;5068262;28;20086;-51
2023/02/09 08:24:08;;;;;;;4.47;3.30;;;18.80;26.70;;;;;;5048309;28;20044;-55
2023/02/09 08:26:34;;;;;;;5.35;3.70;;;18.90;26.70;;;;;;5065212;28;20021;-52
2023/02/09 08:29:00;;;;;;;4.72;3.55;;;19.00;26.70;;;;;;5062996;28;20052;-49
2023/02/09 08:31:26;;;;;;;3.90;2.90;;;19.00;26.60;;;;;;5055157;28;20044;-52
2023/02/09 08:33:53;;;;;;;5.25;3.53;;;19.10;26.60;;;;;;5062479;28;20029;-51
2023/02/09 08:36:19;;;;;;;5.03;3.28;;;19.10;26.60;;;;;;5057255;28;20024;-54
2023/02/09 08:38:47;;;;;;;4.13;3.22;;;19.20;26.60;;;;;;5059229;28;20321;-52
2023/02/09 08:41:16;;;;;;;4.60;3.47;;;19.30;26.60;;;;;;5043206;28;20111;-52
2023/02/09 08:43:45;;;;;;;4.70;3.47;;;19.30;26.50;;;;;;5063322;28;20146;-52
2023/02/09 08:46:12;;;;;;;4.35;3.45;;;19.40;26.50;;;;;;5063505;28;20021;-49
2023/02/09 08:48:40;;;;;;;4.43;3.25;;;19.50;26.40;;;;;;5063876;28;20053;-49
2023/02/09 08:51:07;;;;;;;5.25;3.85;;;19.50;26.40;;;;;;5062773;28;20444;-49
2023/02/09 08:53:34;;;;;;;4.32;3.17;;;19.60;26.30;;;;;;5064104;28;20036;-52
2023/02/09 08:56:00;;;;;;;5.85;3.92;;;19.70;26.30;;;;;;5062955;28;20032;-52
2023/02/09 08:58:28;;;;;;;4.88;3.35;;;19.70;26.20;;;;;;5062263;28;20029;-51
2023/02/09 09:00:55;;;;;;;5.57;3.55;;;19.80;26.20;;;;;;5064307;28;20029;-48
2023/02/09 09:03:28;;;;;;;5.53;3.58;;;19.90;26.20;;;;;;5061695;28;20032;-55
2023/02/09 09:06:02;;;;;;;4.28;3.40;;;19.90;26.10;;;;;;5061585;28;20024;-51
2023/02/09 09:08:29;;;;;;;4.90;3.55;;;20.00;26.10;;;;;;5064190;28;20031;-52
2023/02/09 09:10:55;;;;;;;5.35;3.50;;;20.00;26.00;;;;;;5058226;28;20033;-52
2023/02/09 09:13:23;;;;;;;5.10;3.92;;;20.10;26.00;;;;;;5062687;28;20036;-52
2023/02/09 09:15:49;;;;;;;5.05;3.67;;;20.10;25.90;;;;;;5065239;28;21808;-54
2023/02/09 09:18:15;;;;;;;5.18;3.70;;;20.20;26.00;;;;;;5062213;28;20368;-52
2023/02/09 09:20:41;;;;;;;5.75;3.53;;;20.20;25.90;;;;;;5065456;28;20093;-54
2023/02/09 09:23:08;;;;;;;4.85;3.53;;;20.30;25.80;;;;;;5063104;28;20026;-53
2023/02/09 09:25:34;;;;;;;5.40;3.40;;;20.30;25.80;;;;;;5061370;28;20032;-53
2023/02/09 09:28:00;;;;;;;4.82;3.45;;;20.30;25.70;;;;;;5063325;28;20075;-54
2023/02/09 09:30:26;;;;;;;5.57;3.95;;;20.40;25.70;;;;;;5062187;28;20053;-53
2023/02/09 09:32:52;;;;;;;6.13;3.88;;;20.40;25.70;;;;;;5061170;28;20036;-52
2023/02/09 09:35:18;;;;;;;4.65;3.63;;;20.40;25.60;;;;;;5062374;28;20029;-52
2023/02/09 09:37:44;;;;;;;5.07;3.42;;;20.50;25.60;;;;;;5062693;28;20369;-55
2023/02/09 09:40:22;;;;;;;5.10;3.72;;;20.50;25.60;;;;;;5063404;28;20028;-55
2023/02/09 09:42:55;;;;;;;5.10;3.83;;;20.50;25.60;;;;;;5063916;28;20083;-53
2023/02/09 09:45:24;;;;;;;4.95;3.40;;;20.50;25.50;;;;;;5063771;28;20044;-54
2023/02/09 09:47:50;;;;;;;4.85;3.58;;;20.50;25.50;;;;;;5061937;28;20056;-52
2023/02/09 09:50:24;;;;;;;6.10;3.45;;;20.50;25.50;;;;;;5062810;28;20028;-48
2023/02/09 09:53:04;;;;;;;5.05;3.13;;;20.50;25.60;;;;;;5064442;28;20657;-53
2023/02/09 09:55:31;;;;;;;4.47;3.40;;;20.50;25.50;;;;;;5063486;28;20418;-50
2023/02/09 09:58:01;;;;;;;4.60;3.33;;;20.50;25.60;;;;;;5062392;28;20025;-52
2023/02/09 10:00:36;;;;;;;5.03;3.40;;;20.50;25.60;;;;;;5062145;28;20035;-55
2023/02/09 10:03:11;;;;;;;5.68;3.70;;;20.50;25.60;;;;;;5058604;28;20028;-58
2023/02/09 10:05:38;;;;;;;5.60;3.53;;;20.50;25.60;;;;;;5059369;28;20041;-56
2023/02/09 10:08:23;;;;;;;5.90;3.30;;;20.50;25.60;;;;;;5060155;28;20391;-54
2023/02/09 10:11:14;;;;;;;3.90;2.90;;;20.50;25.90;;;;;;5067168;28;20029;-55
2023/02/09 10:13:50;;;;;;;4.50;3.00;;;20.50;25.90;;;;;;5055801;28;20063;-52
2023/02/09 10:16:26;;;;;;;3.45;2.80;;;20.50;25.90;;;;;;5063153;28;20029;-54
2023/02/09 10:18:54;;;;;;;4.82;3.20;;;20.50;25.90;;;;;;5068209;28;20037;-52
2023/02/09 10:21:21;;;;;;;4.88;3.08;;;20.50;25.80;;;;;;5064699;28;20079;-53
2023/02/09 10:24:25;;;;;;;4.43;3.22;;;20.50;25.80;;;;;;5065997;28;20115;-54
2023/02/09 10:27:08;;;;;;;4.97;3.10;;;20.50;26.20;;;;;;5057535;28;20128;-54
2023/02/09 10:29:34;;;;;;;4.30;2.92;;;20.50;25.70;;;;;;5065000;28;20021;-53
2023/02/09 10:32:19;;;;;;;6.65;3.53;;;20.50;25.70;;;;;;5064639;28;20036;-52
2023/02/09 10:34:53;;;;;;;4.55;3.10;;;20.50;25.70;;;;;;5067773;28;20054;-54
2023/02/09 10:37:21;;;;;;;4.82;3.30;;;20.50;25.60;;;;;;5068121;28;20032;-51
2023/02/09 10:40:07;;;;;;;4.55;3.42;;;20.50;25.60;;;;;;5064966;28;20047;-54
2023/02/09 10:42:36;;;;;;;6.95;3.42;;;20.50;25.60;;;;;;5064302;28;20024;-54
2023/02/09 10:45:19;;;;;;;4.80;3.20;;;20.50;25.60;;;;;;5066216;28;20072;-53
2023/02/09 10:48:01;;;;;;;4.32;3.20;;;20.50;25.70;;;;;;5066075;28;20044;-52
2023/02/09 10:50:27;;;;;;;8.65;3.53;;;20.40;25.60;;;;;;5066270;28;20016;-55
2023/02/09 10:53:11;;;;;;;4.90;3.55;;;20.40;25.60;;;;;;5060047;28;20021;-50
2023/02/09 10:55:40;;;;;;;4.22;3.40;;;20.50;25.60;;;;;;5062108;28;20470;-55
2023/02/09 10:58:09;;;;;;;4.72;3.47;;;20.40;25.60;;;;;;5062173;28;20021;-55
2023/02/09 11:01:03;;;;;;;4.57;3.55;;;20.40;25.60;;;;;;5063224;28;20066;-50
2023/02/09 11:03:29;;;;;;;5.90;3.87;;;20.50;25.60;;;;;;5064753;28;20029;-54
2023/02/09 11:06:20;;;;;;;4.72;3.30;;;20.40;25.60;;;;;;5066596;28;20341;-54
2023/02/09 11:08:58;;;;;;;4.43;3.35;;;20.40;25.70;;;;;;5064632;28;20047;-53
2023/02/09 11:11:29;;;;;;;4.68;3.08;;;20.40;25.70;;;;;;5063678;28;20029;-54
2023/02/09 11:13:56;;;;;;;4.85;3.35;;;20.40;25.70;;;;;;5065305;28;20037;-54
2023/02/09 11:16:35;;;;;;;4.28;3.13;;;20.40;25.70;;;;;;5066885;28;20325;-53
2023/02/09 11:19:21;;;;;;;5.20;3.28;;;20.40;25.70;;;;;;5062952;28;20025;-54
2023/02/09 11:22:15;;;;;;;4.97;3.22;;;20.40;25.70;;;;;;5061320;28;20029;-54
2023/02/09 11:25:12;;;;;;;4.78;3.88;;;20.40;25.70;;;;;;5040809;28;20122;-53
2023/02/09 11:28:10;;;;;;;3.80;3.08;;;20.40;25.70;;;;;;5064035;28;20044;-53
2023/02/09 11:30:53;;;;;;;5.15;3.42;;;20.40;25.90;;;;;;5061545;28;20134;-48
2023/02/09 11:33:28;;;;;;;4.68;2.50;;;20.40;26.30;;;;;;5062984;28;20036;-52
2023/02/09 11:36:16;;;;;;;3.03;2.47;;;20.40;26.70;;;;;;5043713;28;20033;-51
2023/02/09 11:39:00;;;;;;;3.42;2.50;;;20.40;27.00;;;;;;5063371;28;20082;-49
2023/02/09 11:44:38;;;;;;;4.70;2.88;;;20.40;27.20;;;;;;5062692;28;20032;-54
2023/02/09 11:47:09;;;;;;;5.68;3.10;;;20.40;27.30;;;;;;5063315;28;20029;-53
2023/02/09 11:49:57;;;;;;;4.65;2.90;;;20.50;27.40;;;;;;5061124;28;20035;-53
2023/02/09 11:52:30;;;;;;;3.63;2.80;;;20.50;27.40;;;;;;5062547;28;20376;-53
2023/02/09 11:55:01;;;;;;;4.88;3.10;;;20.50;27.50;;;;;;5063612;28;20452;-52
2023/02/09 11:57:46;;;;;;;4.82;3.17;;;20.50;27.50;;;;;;5044521;28;20085;-52
2023/02/09 12:00:23;;;;;;;7.93;3.00;;;20.50;27.50;;;;;;5060929;28;20029;-53
2023/02/09 12:03:02;;;;;;;3.78;3.00;;;20.50;27.40;;;;;;5065042;28;20374;-53
2023/02/09 12:05:29;;;;;;;4.22;2.83;;;20.50;27.40;;;;;;5065200;28;20041;-51
2023/02/09 12:08:14;;;;;;;4.47;3.10;;;20.50;27.30;;;;;;5063813;28;20108;-51
2023/02/09 12:10:56;;;;;;;4.40;3.20;;;20.50;27.20;;;;;;5062667;28;20112;-49
2023/02/09 12:13:25;;;;;;;4.30;3.13;;;20.50;27.10;;;;;;5064813;28;20119;-51
2023/02/09 12:15:58;;;;;;;4.80;3.25;;;20.50;27.10;;;;;;5020708;28;20037;-52
2023/02/09 12:18:27;;;;;;;5.00;3.33;;;20.50;27.00;;;;;;5023811;28;20536;-53
2023/02/09 12:20:58;;;;;;;4.38;3.10;;;20.40;26.90;;;;;;5023059;28;20033;-50
2023/02/09 12:23:42;;;;;;;4.88;3.45;;;20.40;26.80;;;;;;5023441;28;20029;-46
2023/02/09 12:26:11;;;;;;;4.45;3.00;;;20.50;26.80;;;;;;5022671;28;20041;-51
2023/02/09 12:28:37;;;;;;;4.55;3.45;;;20.40;26.70;;;;;;5021170;28;20033;-52
2023/02/09 12:31:07;;;;;;;4.65;3.28;;;20.50;26.70;;;;;;5024064;28;20087;-51
2023/02/09 12:33:44;;;;;;;5.80;3.60;;;20.50;26.70;;;;;;5023885;28;20076;-53
2023/02/09 12:36:13;;;;;;;4.75;3.30;;;20.40;26.70;;;;;;5021097;28;20053;-51
2023/02/09 12:38:54;;;;;;;4.75;3.13;;;20.40;26.70;;;;;;5021969;28;20034;-53
2023/02/09 12:41:34;;;;;;;6.80;3.55;;;20.40;26.70;;;;;;5023114;28;20168;-57
2023/02/09 12:44:08;;;;;;;5.75;3.15;;;20.40;27.40;;;;;;5029833;28;20365;-53
2023/02/09 12:46:43;;;;;;;4.10;3.08;;;20.40;27.10;;;;;;5017586;28;20049;-52
2023/02/09 12:49:16;;;;;;;;;;;20.40;27.20;;;;;;5023297;28;20373;-54
2023/02/09 12:51:45;;;;;;;4.68;3.70;;;20.40;27.20;;;;;;5025597;28;19921;-55
2023/02/09 12:54:44;;;;;;;4.60;3.50;;;20.50;27.20;;;;;;5020373;28;20105;-55
2023/02/09 12:57:19;;;;;;;4.65;3.33;;;20.50;27.20;;;;;;5020365;28;20025;-52
2023/02/09 12:59:52;;;;;;;3.92;3.08;;;20.60;27.30;;;;;;5033334;28;20064;-47
2023/02/09 13:02:34;;;;;;;4.67;2.70;;;20.70;27.40;;;;;;5035710;28;20025;-54
2023/02/09 13:05:11;;;;;;;4.45;2.85;;;20.80;27.40;;;;;;5012972;28;20296;-52
2023/02/09 13:07:43;;;;;;;3.80;2.80;;;20.90;27.40;;;;;;5017422;28;20080;-50
2023/02/09 13:10:18;;;;;;;4.63;3.40;;;21.00;27.40;;;;;;5017320;28;20117;-48
2023/02/09 13:12:53;;;;;;;4.95;3.40;;;21.10;27.30;;;;;;5021578;28;20033;-55
2023/02/09 13:15:19;;;;;;;4.38;2.97;;;21.20;27.20;;;;;;5036730;28;20075;-54